Time;durP1;ratioP1;P1;durP2;ratioP2;P2;SDS_P1;SDS_P2;PMS_P1;PMS_P2;Temp;Humidity;BMP_temperature;BMP_pressure;BME280_temperature;BME280_humidity;BME280_pressure;Samples;Min_cycle;Max_cycle;Signal;HPM_P1;HPM_P2
2021/03/19 00:00:34;;;;;;;133.43;63.45;;;;;;;;;;4944565;28;20230;-48
2021/03/19 00:03:00;;;;;;;90.25;42.17;;;;;;;;;;4944506;28;20033;-48
2021/03/19 00:05:29;;;;;;;68.05;31.92;;;;;;;;;;4944103;28;20054;-48
2021/03/19 00:07:56;;;;;;;74.43;37.50;;;;;;;;;;4944599;28;20046;-48
2021/03/19 00:10:30;;;;;;;86.47;38.70;;;;;;;;;;4944546;28;20023;-48
2021/03/19 00:12:57;;;;;;;69.03;31.58;;;;;;;;;;4959435;28;20853;-49
2021/03/19 00:15:23;;;;;;;75.60;36.47;;;;;;;;;;4947704;28;20019;-49
2021/03/19 00:17:50;;;;;;;66.88;36.60;;;;;;;;;;4948164;28;20035;-48
2021/03/19 00:20:20;;;;;;;81.20;40.42;;;;;;;;;;4947991;28;20042;-48
2021/03/19 00:22:47;;;;;;;80.10;39.75;;;;;;;;;;4950368;28;20061;-49
2021/03/19 00:25:13;;;;;;;59.60;32.53;;;;;;;;;;4947873;28;20027;-49
2021/03/19 00:27:39;;;;;;;97.15;53.58;;;;;;;;;;4947708;28;20089;-49
2021/03/19 00:30:07;;;;;;;62.90;33.47;;;;;;;;;;4947751;28;20038;-49
2021/03/19 00:32:33;;;;;;;55.25;31.02;;;;;;;;;;4948076;28;20027;-48
2021/03/19 00:34:59;;;;;;;59.53;29.65;;;;;;;;;;4947489;28;20027;-48
2021/03/19 00:37:25;;;;;;;73.15;37.25;;;;;;;;;;4947555;28;20066;-48
2021/03/19 00:39:51;;;;;;;66.20;34.63;;;;;;;;;;4947391;28;20045;-48
2021/03/19 00:42:17;;;;;;;98.10;52.25;;;;;;;;;;4947901;28;20097;-48
2021/03/19 00:44:43;;;;;;;59.13;33.60;;;;;;;;;;4947816;28;20759;-48
2021/03/19 00:47:10;;;;;;;129.65;66.53;;;;;;;;;;4947788;28;20027;-47
2021/03/19 00:49:36;;;;;;;93.28;47.55;;;;;;;;;;4947808;28;20038;-50
2021/03/19 00:52:03;;;;;;;91.15;46.40;;;;;;;;;;4947460;28;20031;-47
2021/03/19 00:54:29;;;;;;;81.45;46.35;;;;;;;;;;4947314;28;20278;-48
2021/03/19 00:56:55;;;;;;;74.28;41.85;;;;;;;;;;4947455;28;20468;-48
2021/03/19 00:59:24;;;;;;;78.13;45.28;;;;;;;;;;4947348;28;20071;-48
2021/03/19 01:01:50;;;;;;;79.30;44.25;;;;;;;;;;4948438;28;20016;-47
2021/03/19 01:04:16;;;;;;;78.30;43.15;;;;;;;;;;4947322;28;20034;-48
2021/03/19 01:06:42;;;;;;;87.93;49.72;;;;;;;;;;4947182;28;20530;-47
2021/03/19 01:09:08;;;;;;;81.72;48.30;;;;;;;;;;4947023;28;20070;-48
2021/03/19 01:11:35;;;;;;;83.20;48.17;;;;;;;;;;4947081;28;20027;-48
2021/03/19 01:14:01;;;;;;;81.55;48.55;;;;;;;;;;4947026;28;20098;-48
2021/03/19 01:16:27;;;;;;;82.28;46.88;;;;;;;;;;4947770;28;20034;-48
2021/03/19 01:18:53;;;;;;;110.35;61.72;;;;;;;;;;4955364;28;20087;-48
2021/03/19 01:21:19;;;;;;;95.25;54.80;;;;;;;;;;4957308;28;20051;-47
2021/03/19 01:23:46;;;;;;;129.10;66.90;;;;;;;;;;4957652;28;20061;-48
2021/03/19 01:26:15;;;;;;;66.38;37.25;;;;;;;;;;4957149;28;20028;-48
2021/03/19 01:28:42;;;;;;;46.88;29.10;;;;;;;;;;4956750;28;20110;-48
2021/03/19 01:31:08;;;;;;;86.32;46.35;;;;;;;;;;4957374;28;20019;-47
2021/03/19 01:33:35;;;;;;;46.17;26.58;;;;;;;;;;4957347;28;20383;-47
2021/03/19 01:36:05;;;;;;;83.70;45.40;;;;;;;;;;4957256;28;20027;-47
2021/03/19 01:38:32;;;;;;;56.97;33.70;;;;;;;;;;4957297;28;20042;-48
2021/03/19 01:40:58;;;;;;;72.43;40.05;;;;;;;;;;4957097;28;20019;-48
2021/03/19 01:43:27;;;;;;;69.43;38.83;;;;;;;;;;4957334;28;20027;-46
2021/03/19 01:46:12;;;;;;;55.13;32.33;;;;;;;;;;4962962;28;20074;-47
2021/03/19 01:48:56;;;;;;;59.53;32.90;;;;;;;;;;4976392;28;20098;-48
2021/03/19 01:51:41;;;;;;;44.92;27.92;;;;;;;;;;4976290;28;20446;-48
2021/03/19 01:54:25;;;;;;;43.22;26.35;;;;;;;;;;4976372;28;20035;-48
2021/03/19 01:57:10;;;;;;;67.68;38.05;;;;;;;;;;4976298;28;20109;-48
2021/03/19 01:59:57;;;;;;;46.13;27.08;;;;;;;;;;4976239;28;20410;-48
2021/03/19 02:02:42;;;;;;;50.65;31.48;;;;;;;;;;4976348;28;20023;-48
2021/03/19 02:05:26;;;;;;;45.38;27.65;;;;;;;;;;4976012;28;20101;-48
2021/03/19 02:08:11;;;;;;;61.33;35.28;;;;;;;;;;4976262;28;20027;-48
2021/03/19 02:10:55;;;;;;;52.33;30.73;;;;;;;;;;4976215;28;20023;-48
2021/03/19 02:13:40;;;;;;;56.20;33.72;;;;;;;;;;4976105;28;20034;-48
2021/03/19 02:16:26;;;;;;;39.28;23.90;;;;;;;;;;4976222;28;20033;-47
2021/03/19 02:19:11;;;;;;;51.47;28.42;;;;;;;;;;4975946;28;20105;-47
2021/03/19 02:21:56;;;;;;;56.85;32.88;;;;;;;;;;4975542;28;20043;-48
2021/03/19 02:24:40;;;;;;;46.88;26.83;;;;;;;;;;4975918;28;20418;-48
2021/03/19 02:27:25;;;;;;;47.05;26.83;;;;;;;;;;4975903;28;20383;-47
2021/03/19 02:30:14;;;;;;;47.08;27.95;;;;;;;;;;4975763;28;20360;-48
2021/03/19 02:32:40;;;;;;;39.58;24.65;;;;;;;;;;4975673;28;20419;-48
2021/03/19 02:35:12;;;;;;;44.25;24.80;;;;;;;;;;4975573;28;20037;-47
2021/03/19 02:37:38;;;;;;;45.45;25.77;;;;;;;;;;4975328;28;20498;-47
2021/03/19 02:40:07;;;;;;;46.05;26.90;;;;;;;;;;4975339;28;20039;-48
2021/03/19 02:42:34;;;;;;;50.95;28.48;;;;;;;;;;4975475;28;20022;-48
2021/03/19 02:45:00;;;;;;;43.50;26.17;;;;;;;;;;4975640;28;20030;-47
2021/03/19 02:47:27;;;;;;;51.33;31.63;;;;;;;;;;4975479;28;20423;-48
2021/03/19 02:49:53;;;;;;;44.72;27.85;;;;;;;;;;4975143;28;20027;-48
2021/03/19 02:52:24;;;;;;;42.40;25.80;;;;;;;;;;4975155;28;20034;-48
2021/03/19 02:54:52;;;;;;;48.78;29.52;;;;;;;;;;4975569;28;20414;-48
2021/03/19 02:57:19;;;;;;;47.50;28.42;;;;;;;;;;4975373;28;20029;-49
2021/03/19 02:59:45;;;;;;;44.95;25.80;;;;;;;;;;4975258;28;20479;-48
2021/03/19 03:02:11;;;;;;;42.55;26.23;;;;;;;;;;4975257;28;20026;-48
2021/03/19 03:04:37;;;;;;;46.55;27.77;;;;;;;;;;4975326;28;20372;-48
2021/03/19 03:07:04;;;;;;;50.22;30.83;;;;;;;;;;4975029;28;20027;-48
2021/03/19 03:09:34;;;;;;;55.90;33.80;;;;;;;;;;4975049;28;20026;-48
2021/03/19 03:12:03;;;;;;;62.25;33.97;;;;;;;;;;4975167;28;20380;-48
2021/03/19 03:14:30;;;;;;;57.13;33.95;;;;;;;;;;4974790;28;20034;-48
2021/03/19 03:17:00;;;;;;;46.22;28.85;;;;;;;;;;4975139;28;20030;-48
2021/03/19 03:19:26;;;;;;;44.38;27.88;;;;;;;;;;4974817;28;20471;-48
2021/03/19 03:21:52;;;;;;;45.67;27.17;;;;;;;;;;4974495;28;20081;-48
2021/03/19 03:24:19;;;;;;;51.65;32.00;;;;;;;;;;4974845;28;20040;-48
2021/03/19 03:26:47;;;;;;;53.47;32.47;;;;;;;;;;4974906;28;20142;-48
2021/03/19 03:29:13;;;;;;;49.13;31.13;;;;;;;;;;4974704;28;20035;-48
2021/03/19 03:31:40;;;;;;;40.80;27.23;;;;;;;;;;4974802;28;20098;-48
2021/03/19 03:34:07;;;;;;;47.28;28.92;;;;;;;;;;4974684;28;20023;-49
2021/03/19 03:36:33;;;;;;;45.25;27.92;;;;;;;;;;4974410;28;20027;-48
2021/03/19 03:39:00;;;;;;;43.35;25.95;;;;;;;;;;5008085;23;20581;-56
2021/03/19 03:41:27;;;;;;;42.17;26.42;;;;;;;;;;4994018;28;20033;-54
2021/03/19 03:43:53;;;;;;;40.88;25.02;;;;;;;;;;4993986;28;20018;-55
2021/03/19 03:46:22;;;;;;;42.78;25.67;;;;;;;;;;4994124;28;20033;-56
2021/03/19 03:48:48;;;;;;;43.00;26.58;;;;;;;;;;4994226;28;20478;-55
2021/03/19 03:51:15;;;;;;;43.83;25.98;;;;;;;;;;4996340;28;20031;-54
2021/03/19 03:53:41;;;;;;;45.47;26.38;;;;;;;;;;4998036;28;20037;-54
2021/03/19 03:56:09;;;;;;;42.88;27.45;;;;;;;;;;4998224;28;20027;-55
2021/03/19 03:58:35;;;;;;;43.75;27.00;;;;;;;;;;4997885;28;20100;-56
2021/03/19 04:01:01;;;;;;;40.53;26.40;;;;;;;;;;4998047;28;20053;-55
2021/03/19 04:03:27;;;;;;;41.83;24.90;;;;;;;;;;4997864;28;20023;-56
2021/03/19 04:05:53;;;;;;;41.35;25.55;;;;;;;;;;4997687;28;20022;-56
2021/03/19 04:08:21;;;;;;;43.15;27.63;;;;;;;;;;4997600;28;20039;-55
2021/03/19 04:10:48;;;;;;;42.05;25.40;;;;;;;;;;4997167;28;20034;-56
2021/03/19 04:13:15;;;;;;;41.35;25.85;;;;;;;;;;4997689;28;20023;-55
2021/03/19 04:15:42;;;;;;;40.00;25.40;;;;;;;;;;4997794;28;20050;-56
2021/03/19 04:18:10;;;;;;;39.63;25.88;;;;;;;;;;4997536;28;20026;-56
2021/03/19 04:20:37;;;;;;;39.38;25.65;;;;;;;;;;4997481;28;20117;-56
2021/03/19 04:23:04;;;;;;;38.55;24.17;;;;;;;;;;4997692;28;20022;-54
2021/03/19 04:25:31;;;;;;;39.60;25.25;;;;;;;;;;4997946;28;20088;-56
2021/03/19 04:28:00;;;;;;;40.85;25.10;;;;;;;;;;4997396;28;20019;-54
2021/03/19 04:30:28;;;;;;;34.30;23.38;;;;;;;;;;4997403;28;20034;-56
2021/03/19 04:32:55;;;;;;;38.90;25.58;;;;;;;;;;4997218;28;20038;-56
2021/03/19 04:35:22;;;;;;;38.78;24.85;;;;;;;;;;4997075;28;20023;-55
2021/03/19 04:37:51;;;;;;;41.00;25.98;;;;;;;;;;4997319;28;20134;-56
2021/03/19 04:40:18;;;;;;;40.47;25.08;;;;;;;;;;4997153;28;20050;-53
2021/03/19 04:42:44;;;;;;;39.55;26.02;;;;;;;;;;4997263;28;20082;-54
2021/03/19 04:45:11;;;;;;;41.22;26.65;;;;;;;;;;4997243;28;20026;-57
2021/03/19 04:47:37;;;;;;;45.10;26.38;;;;;;;;;;4997190;28;20392;-54
2021/03/19 04:50:07;;;;;;;49.03;29.92;;;;;;;;;;4997000;28;20018;-54
2021/03/19 04:52:33;;;;;;;63.60;36.60;;;;;;;;;;4996930;28;20513;-55
2021/03/19 04:55:02;;;;;;;68.15;36.13;;;;;;;;;;4997064;28;20018;-54
2021/03/19 04:57:28;;;;;;;63.28;36.28;;;;;;;;;;4997020;28;20030;-56
2021/03/19 04:59:57;;;;;;;63.40;35.20;;;;;;;;;;4996832;28;20394;-54
2021/03/19 05:02:39;;;;;;;55.63;32.60;;;;;;;;;;4996652;28;20150;-56
2021/03/19 05:05:08;;;;;;;55.10;32.08;;;;;;;;;;4996883;28;20049;-53
2021/03/19 05:07:34;;;;;;;52.08;32.17;;;;;;;;;;4996703;28;20054;-56
2021/03/19 05:10:00;;;;;;;59.08;33.85;;;;;;;;;;4996679;28;20131;-55
2021/03/19 05:12:26;;;;;;;55.58;32.72;;;;;;;;;;4996742;28;20072;-55
2021/03/19 05:14:52;;;;;;;50.63;30.48;;;;;;;;;;4996483;28;20398;-56
2021/03/19 05:17:20;;;;;;;50.13;30.08;;;;;;;;;;4996513;28;20019;-55
2021/03/19 05:19:46;;;;;;;44.08;27.33;;;;;;;;;;4996359;28;20117;-56
2021/03/19 05:22:12;;;;;;;47.50;29.45;;;;;;;;;;4996537;28;20098;-56
2021/03/19 05:24:39;;;;;;;47.33;28.98;;;;;;;;;;4996445;28;20030;-57
2021/03/19 05:27:05;;;;;;;57.97;30.35;;;;;;;;;;4996319;28;20467;-55
2021/03/19 05:29:31;;;;;;;54.20;30.70;;;;;;;;;;4996350;28;20053;-52
2021/03/19 05:31:57;;;;;;;53.65;31.40;;;;;;;;;;4996235;28;20455;-55
2021/03/19 05:34:23;;;;;;;54.53;32.03;;;;;;;;;;4996420;28;20023;-56
2021/03/19 05:36:53;;;;;;;86.00;47.53;;;;;;;;;;4996157;28;20022;-55
2021/03/19 05:39:19;;;;;;;67.95;36.63;;;;;;;;;;4995798;28;20509;-55
2021/03/19 05:41:45;;;;;;;59.72;35.97;;;;;;;;;;4996036;28;20034;-55
2021/03/19 05:44:14;;;;;;;87.75;49.15;;;;;;;;;;4996156;28;20022;-55
2021/03/19 05:46:49;;;;;;;75.82;42.33;;;;;;;;;;5011255;28;20031;-55
2021/03/19 05:49:15;;;;;;;71.25;41.92;;;;;;;;;;4996100;28;20473;-55
2021/03/19 05:51:43;;;;;;;87.80;49.63;;;;;;;;;;4995604;28;20442;-54
2021/03/19 05:54:12;;;;;;;82.15;45.15;;;;;;;;;;4995917;28;20031;-55
2021/03/19 05:56:42;;;;;;;78.97;46.88;;;;;;;;;;4995699;28;20026;-54
2021/03/19 05:59:09;;;;;;;95.57;54.47;;;;;;;;;;4995453;28;20042;-55
2021/03/19 06:01:35;;;;;;;96.93;51.60;;;;;;;;;;4995669;28;20030;-54
2021/03/19 06:04:02;;;;;;;124.22;69.85;;;;;;;;;;4995617;28;20050;-55
2021/03/19 06:06:46;;;;;;;88.22;49.38;;;;;;;;;;4995539;28;20018;-55
2021/03/19 06:09:22;;;;;;;81.60;48.03;;;;;;;;;;4995527;28;20040;-55
2021/03/19 06:11:49;;;;;;;75.25;42.92;;;;;;;;;;4995343;28;20037;-55
2021/03/19 06:14:17;;;;;;;80.70;45.63;;;;;;;;;;4994982;28;20029;-52
2021/03/19 06:16:47;;;;;;;82.63;45.55;;;;;;;;;;4995529;28;20035;-54
2021/03/19 06:19:46;;;;;;;73.70;42.05;;;;;;;;;;4995597;28;20040;-55
2021/03/19 06:22:21;;;;;;;64.10;38.30;;;;;;;;;;4993286;28;20414;-55
2021/03/19 06:25:01;;;;;;;67.97;39.58;;;;;;;;;;4993165;28;20038;-55
2021/03/19 06:27:31;;;;;;;68.70;38.80;;;;;;;;;;4993076;28;20085;-55
2021/03/19 06:30:00;;;;;;;65.07;39.10;;;;;;;;;;4993031;28;20027;-55
2021/03/19 06:32:28;;;;;;;60.75;37.30;;;;;;;;;;4993089;28;20482;-56
2021/03/19 06:35:18;;;;;;;58.20;34.67;;;;;;;;;;4992892;28;20093;-55
2021/03/19 06:37:47;;;;;;;62.83;38.17;;;;;;;;;;4993043;28;20070;-54
2021/03/19 06:40:33;;;;;;;63.85;38.63;;;;;;;;;;4992703;28;20402;-53
2021/03/19 06:43:16;;;;;;;57.78;33.47;;;;;;;;;;4992871;28;20035;-54
2021/03/19 06:45:42;;;;;;;58.47;34.25;;;;;;;;;;4992733;28;20181;-53
2021/03/19 06:48:27;;;;;;;53.17;32.67;;;;;;;;;;4992615;28;20025;-54
2021/03/19 06:50:55;;;;;;;45.92;29.08;;;;;;;;;;4992519;28;20031;-54
2021/03/19 06:53:21;;;;;;;48.00;29.10;;;;;;;;;;4992638;28;20078;-55
2021/03/19 06:55:50;;;;;;;47.42;28.85;;;;;;;;;;4992719;28;20029;-55
2021/03/19 06:58:33;;;;;;;43.38;26.75;;;;;;;;;;4993897;28;20042;-55
2021/03/19 07:00:59;;;;;;;44.33;26.42;;;;;;;;;;4994629;28;20038;-53
2021/03/19 07:03:45;;;;;;;51.90;30.42;;;;;;;;;;4994519;28;20034;-54
2021/03/19 07:06:20;;;;;;;68.60;39.33;;;;;;;;;;4994351;28;20093;-54
2021/03/19 07:09:09;;;;;;;57.05;34.28;;;;;;;;;;4994661;28;20122;-55
2021/03/19 07:11:50;;;;;;;49.97;31.45;;;;;;;;;;4993800;28;20046;-55
2021/03/19 07:14:16;;;;;;;;;;;;;;;;;;4994865;28;20429;-54
2021/03/19 07:16:48;;;;;;;57.78;31.90;;;;;;;;;;4994347;28;19905;-55
2021/03/19 07:19:38;;;;;;;65.25;34.70;;;;;;;;;;4994232;28;20459;-53
2021/03/19 07:22:14;;;;;;;90.22;44.30;;;;;;;;;;4993784;28;20101;-55
2021/03/19 07:24:40;;;;;;;90.28;46.00;;;;;;;;;;4993634;28;20030;-54
2021/03/19 07:27:25;;;;;;;92.90;48.10;;;;;;;;;;4994207;28;20025;-54
2021/03/19 07:30:10;;;;;;;118.57;61.95;;;;;;;;;;4994224;28;20033;-55
2021/03/19 07:32:51;;;;;;;125.43;68.38;;;;;;;;;;4994206;28;20034;-54
2021/03/19 07:35:37;;;;;;;88.97;47.95;;;;;;;;;;4994168;28;20037;-54
2021/03/19 07:38:31;;;;;;;80.70;43.85;;;;;;;;;;4993916;28;20026;-54
2021/03/19 07:41:03;;;;;;;89.78;48.75;;;;;;;;;;4994218;28;20066;-55
2021/03/19 07:43:29;;;;;;;60.17;34.78;;;;;;;;;;5009118;28;20481;-54
2021/03/19 07:45:56;;;;;;;54.65;29.75;;;;;;;;;;4994024;28;20034;-54
2021/03/19 07:48:36;;;;;;;61.40;33.22;;;;;;;;;;4993941;28;20027;-55
2021/03/19 07:51:08;;;;;;;61.40;34.20;;;;;;;;;;4994235;28;20077;-54
2021/03/19 07:53:34;;;;;;;60.50;31.35;;;;;;;;;;4993979;28;20025;-56
2021/03/19 07:56:15;;;;;;;56.78;30.33;;;;;;;;;;4993776;28;20030;-54
2021/03/19 07:58:44;;;;;;;54.10;27.63;;;;;;;;;;4993620;28;20050;-55
2021/03/19 08:01:26;;;;;;;57.80;31.92;;;;;;;;;;4993624;28;20034;-54
2021/03/19 08:04:11;;;;;;;64.45;35.63;;;;;;;;;;4993879;28;20030;-52
2021/03/19 08:06:41;;;;;;;62.90;35.58;;;;;;;;;;4993868;28;20093;-55
2021/03/19 08:09:30;;;;;;;72.40;42.47;;;;;;;;;;4993685;28;20026;-53
2021/03/19 08:12:00;;;;;;;65.57;35.97;;;;;;;;;;4982328;28;20042;-51
2021/03/19 08:14:35;;;;;;;51.80;29.92;;;;;;;;;;4987518;28;20030;-52
2021/03/19 08:17:17;;;;;;;64.40;35.60;;;;;;;;;;4993709;28;20101;-55
2021/03/19 08:19:51;;;;;;;59.83;33.75;;;;;;;;;;4993504;28;20041;-53
2021/03/19 08:22:24;;;;;;;76.47;41.72;;;;;;;;;;4993706;28;20030;-53
2021/03/19 08:24:56;;;;;;;77.65;42.90;;;;;;;;;;4993606;28;20026;-54
2021/03/19 08:27:43;;;;;;;95.28;50.80;;;;;;;;;;4993917;28;20041;-54
2021/03/19 08:30:27;;;;;;;63.50;30.63;;;;;;;;;;4993425;28;20042;-51
2021/03/19 08:32:53;;;;;;;53.75;30.35;;;;;;;;;;4993663;28;20018;-51
2021/03/19 08:35:38;;;;;;;47.70;27.20;;;;;;;;;;4993506;28;20022;-53
2021/03/19 08:38:07;;;;;;;48.60;24.63;;;;;;;;;;4996645;28;20026;-55
2021/03/19 08:40:36;;;;;;;80.95;43.38;;;;;;;;;;4996809;28;20042;-55
2021/03/19 08:43:04;;;;;;;60.38;32.90;;;;;;;;;;4996993;28;20029;-54
2021/03/19 08:45:33;;;;;;;50.60;28.55;;;;;;;;;;4997005;28;20026;-54
2021/03/19 08:48:02;;;;;;;42.50;23.85;;;;;;;;;;4997187;28;20054;-51
2021/03/19 08:50:33;;;;;;;69.25;34.22;;;;;;;;;;4996930;28;20026;-50
2021/03/19 08:52:59;;;;;;;;;;;;;;;;;;4997088;28;20028;-51
2021/03/19 08:55:26;;;;;;;50.50;26.15;;;;;;;;;;4996858;28;19996;-51
2021/03/19 08:57:54;;;;;;;50.40;24.48;;;;;;;;;;4996673;28;20446;-51
2021/03/19 09:00:26;;;;;;;59.28;28.00;;;;;;;;;;4996634;28;20034;-49
2021/03/19 09:02:58;;;;;;;41.10;25.80;;;;;;;;;;4996754;28;20450;-49
2021/03/19 09:05:24;;;;;;;56.78;30.05;;;;;;;;;;4996768;28;20088;-49
2021/03/19 09:08:09;;;;;;;55.45;31.67;;;;;;;;;;4996158;28;20023;-47
2021/03/19 09:10:35;;;;;;;48.78;28.50;;;;;;;;;;4996804;28;20470;-51
2021/03/19 09:13:07;;;;;;;53.58;26.83;;;;;;;;;;4995189;28;20394;-50
2021/03/19 09:15:34;;;;;;;42.75;22.17;;;;;;;;;;4996080;28;20037;-49
2021/03/19 09:18:27;;;;;;;37.28;19.48;;;;;;;;;;4995925;28;20105;-49
2021/03/19 09:21:01;;;;;;;37.90;19.52;;;;;;;;;;4992567;28;20073;-50
2021/03/19 09:23:50;;;;;;;40.75;18.25;;;;;;;;;;4996309;28;20498;-50
2021/03/19 09:26:28;;;;;;;38.13;18.17;;;;;;;;;;4996111;28;20030;-50
2021/03/19 09:28:54;;;;;;;28.58;14.30;;;;;;;;;;4995664;28;20093;-50
2021/03/19 09:31:27;;;;;;;21.77;11.77;;;;;;;;;;4995445;28;20084;-51
2021/03/19 09:33:53;;;;;;;17.60;11.32;;;;;;;;;;4996091;28;20092;-51
2021/03/19 09:36:37;;;;;;;19.75;12.40;;;;;;;;;;4995814;28;20129;-50
2021/03/19 09:39:04;;;;;;;27.55;13.90;;;;;;;;;;4995664;28;20082;-49
2021/03/19 09:41:56;;;;;;;22.48;13.95;;;;;;;;;;4995929;28;20085;-49
2021/03/19 09:44:27;;;;;;;23.58;13.95;;;;;;;;;;4995586;28;20095;-50
2021/03/19 09:47:00;;;;;;;25.25;14.50;;;;;;;;;;4996081;28;20030;-51
2021/03/19 09:49:30;;;;;;;23.15;14.02;;;;;;;;;;4995081;28;20029;-50
2021/03/19 09:51:56;;;;;;;24.88;14.65;;;;;;;;;;4995856;28;20019;-50
2021/03/19 09:54:25;;;;;;;22.63;13.05;;;;;;;;;;4995592;28;20034;-51
2021/03/19 09:56:53;;;;;;;16.85;11.38;;;;;;;;;;4996059;28;20157;-52
2021/03/19 09:59:24;;;;;;;18.20;10.52;;;;;;;;;;4995760;28;20039;-51
2021/03/19 10:01:51;;;;;;;18.88;11.27;;;;;;;;;;4995830;28;20438;-50
2021/03/19 10:04:32;;;;;;;17.75;11.13;;;;;;;;;;4995686;28;20089;-50
2021/03/19 10:06:58;;;;;;;18.15;11.52;;;;;;;;;;4995345;28;20041;-50
2021/03/19 10:09:29;;;;;;;16.88;10.40;;;;;;;;;;4995460;28;20038;-50
2021/03/19 10:11:57;;;;;;;18.10;12.07;;;;;;;;;;4995419;28;20380;-51
2021/03/19 10:14:29;;;;;;;18.55;11.32;;;;;;;;;;4995785;28;20375;-48
2021/03/19 10:17:24;;;;;;;23.27;12.65;;;;;;;;;;4995682;28;20023;-49
2021/03/19 10:19:57;;;;;;;18.13;10.00;;;;;;;;;;4993872;28;20773;-49
2021/03/19 10:22:28;;;;;;;15.27;9.25;;;;;;;;;;4995130;28;20027;-48
2021/03/19 10:24:54;;;;;;;14.68;9.18;;;;;;;;;;4995535;28;20105;-49
2021/03/19 10:27:20;;;;;;;20.00;11.38;;;;;;;;;;4995197;28;20081;-50
2021/03/19 10:29:48;;;;;;;17.98;9.95;;;;;;;;;;4995131;28;20033;-50
2021/03/19 10:32:17;;;;;;;12.32;8.38;;;;;;;;;;4994826;28;20383;-49
2021/03/19 10:34:46;;;;;;;12.10;7.35;;;;;;;;;;4994996;28;20089;-51
2021/03/19 10:37:21;;;;;;;16.70;10.23;;;;;;;;;;4994671;28;20018;-49
2021/03/19 10:39:52;;;;;;;14.10;8.85;;;;;;;;;;4994465;28;20149;-49
2021/03/19 10:42:18;;;;;;;20.52;10.52;;;;;;;;;;4994664;28;20105;-50
2021/03/19 10:44:44;;;;;;;16.58;9.15;;;;;;;;;;4994606;28;20026;-48
2021/03/19 10:47:17;;;;;;;17.63;9.35;;;;;;;;;;4994495;28;20553;-49
2021/03/19 10:49:43;;;;;;;13.95;8.68;;;;;;;;;;4994725;28;20026;-49
2021/03/19 10:52:18;;;;;;;26.63;12.10;;;;;;;;;;4994394;28;20030;-49
2021/03/19 10:54:45;;;;;;;13.20;7.43;;;;;;;;;;4994410;28;20026;-50
2021/03/19 10:57:26;;;;;;;11.52;7.65;;;;;;;;;;4994455;28;20022;-51
2021/03/19 10:59:55;;;;;;;11.55;6.93;;;;;;;;;;4994143;28;20068;-52
2021/03/19 11:02:21;;;;;;;15.55;8.70;;;;;;;;;;4994608;28;20022;-52
2021/03/19 11:05:03;;;;;;;16.42;8.35;;;;;;;;;;4994327;28;20084;-51
2021/03/19 11:07:31;;;;;;;15.63;8.50;;;;;;;;;;4994105;28;20030;-50
2021/03/19 11:10:07;;;;;;;11.65;7.55;;;;;;;;;;4993917;28;20049;-51
2021/03/19 11:12:33;;;;;;;13.55;8.23;;;;;;;;;;4993684;28;20413;-51
2021/03/19 11:15:01;;;;;;;16.52;8.88;;;;;;;;;;4993996;28;20521;-47
2021/03/19 11:17:27;;;;;;;14.55;8.32;;;;;;;;;;4994402;28;20026;-48
2021/03/19 11:20:01;;;;;;;14.55;9.00;;;;;;;;;;4993120;28;20030;-47
2021/03/19 11:22:37;;;;;;;22.88;12.15;;;;;;;;;;4994088;28;20031;-47
2021/03/19 11:25:24;;;;;;;12.35;8.20;;;;;;;;;;4993590;28;20022;-49
2021/03/19 11:27:50;;;;;;;30.25;13.38;;;;;;;;;;4993572;28;20022;-49
2021/03/19 11:30:27;;;;;;;17.50;9.98;;;;;;;;;;4994022;28;20121;-50
2021/03/19 11:33:16;;;;;;;16.50;10.25;;;;;;;;;;4993511;28;20029;-51
2021/03/19 11:35:42;;;;;;;13.48;7.90;;;;;;;;;;4993726;28;20022;-49
2021/03/19 11:38:27;;;;;;;10.35;7.32;;;;;;;;;;4993847;28;20379;-50
2021/03/19 11:40:55;;;;;;;16.77;7.60;;;;;;;;;;4993782;28;20065;-49
2021/03/19 11:43:21;;;;;;;10.60;6.88;;;;;;;;;;4993706;28;20051;-50
2021/03/19 11:45:47;;;;;;;11.35;7.45;;;;;;;;;;4993799;28;20585;-49
2021/03/19 11:48:14;;;;;;;11.75;7.30;;;;;;;;;;4992618;28;20069;-51
2021/03/19 11:50:42;;;;;;;13.02;7.15;;;;;;;;;;4994110;28;20026;-49
2021/03/19 11:53:10;;;;;;;11.75;7.82;;;;;;;;;;4993771;28;20050;-49
2021/03/19 11:55:36;;;;;;;9.02;6.90;;;;;;;;;;4993614;28;20037;-50
2021/03/19 11:58:02;;;;;;;11.27;6.72;;;;;;;;;;4993638;28;20093;-50
2021/03/19 12:00:29;;;;;;;13.20;7.68;;;;;;;;;;4993377;28;20042;-51
2021/03/19 12:03:03;;;;;;;12.48;7.78;;;;;;;;;;4993826;28;20078;-49
2021/03/19 12:05:30;;;;;;;15.57;8.13;;;;;;;;;;4993546;28;20105;-51
2021/03/19 12:07:57;;;;;;;18.40;9.20;;;;;;;;;;4993302;28;20018;-51
2021/03/19 12:10:28;;;;;;;16.77;10.73;;;;;;;;;;4993774;28;20398;-50
2021/03/19 12:12:54;;;;;;;12.85;7.88;;;;;;;;;;4997048;28;20026;-51
2021/03/19 12:15:21;;;;;;;13.43;9.43;;;;;;;;;;4997382;28;20479;-50
2021/03/19 12:17:47;;;;;;;13.82;8.88;;;;;;;;;;4997368;28;20065;-50
2021/03/19 12:20:14;;;;;;;18.05;10.93;;;;;;;;;;4997495;28;20046;-50
2021/03/19 12:22:40;;;;;;;17.45;9.55;;;;;;;;;;4997419;28;20026;-50
2021/03/19 12:25:08;;;;;;;12.95;8.60;;;;;;;;;;4997388;28;20189;-50
2021/03/19 12:27:34;;;;;;;12.30;8.32;;;;;;;;;;4997268;28;20022;-48
2021/03/19 12:30:02;;;;;;;21.75;10.73;;;;;;;;;;4997214;28;20030;-50
2021/03/19 12:32:28;;;;;;;17.13;8.80;;;;;;;;;;4997497;28;20402;-50
2021/03/19 12:34:54;;;;;;;13.20;8.45;;;;;;;;;;4997133;28;20026;-50
2021/03/19 12:37:20;;;;;;;14.13;8.93;;;;;;;;;;4997078;28;20022;-48
2021/03/19 12:39:47;;;;;;;12.63;8.32;;;;;;;;;;4996762;28;20058;-50
2021/03/19 12:42:13;;;;;;;14.40;8.95;;;;;;;;;;4997005;28;20018;-50
2021/03/19 12:44:39;;;;;;;14.95;9.80;;;;;;;;;;4996925;28;20092;-50
2021/03/19 12:47:05;;;;;;;17.48;11.18;;;;;;;;;;4996860;28;20419;-47
2021/03/19 12:49:31;;;;;;;12.70;8.32;;;;;;;;;;4997102;28;20034;-48
2021/03/19 12:51:57;;;;;;;12.10;8.43;;;;;;;;;;4996727;28;20023;-50
2021/03/19 12:54:23;;;;;;;14.82;9.70;;;;;;;;;;4996752;28;20375;-50
2021/03/19 12:56:50;;;;;;;14.10;9.43;;;;;;;;;;4996762;28;20029;-49
2021/03/19 12:59:16;;;;;;;12.65;9.10;;;;;;;;;;4996862;28;20034;-49
2021/03/19 13:01:42;;;;;;;13.82;8.57;;;;;;;;;;4996380;28;20031;-50
2021/03/19 13:04:08;;;;;;;14.10;9.57;;;;;;;;;;4996946;28;20403;-49
2021/03/19 13:06:34;;;;;;;14.95;9.20;;;;;;;;;;4996739;28;20031;-49
2021/03/19 13:09:00;;;;;;;13.10;8.52;;;;;;;;;;4996254;28;20037;-49
2021/03/19 13:11:27;;;;;;;15.48;10.10;;;;;;;;;;4996458;28;20118;-49
2021/03/19 13:13:53;;;;;;;18.98;11.38;;;;;;;;;;4996353;28;20069;-49
2021/03/19 13:16:19;;;;;;;15.43;9.88;;;;;;;;;;4996417;28;20037;-50
2021/03/19 13:18:45;;;;;;;14.85;8.55;;;;;;;;;;4996543;28;20128;-49
2021/03/19 13:21:11;;;;;;;10.25;7.90;;;;;;;;;;4996323;28;20041;-49
2021/03/19 13:23:37;;;;;;;14.13;9.35;;;;;;;;;;4995146;28;20063;-50
2021/03/19 13:26:04;;;;;;;13.45;9.20;;;;;;;;;;4992800;28;20030;-51
2021/03/19 13:28:30;;;;;;;16.90;9.68;;;;;;;;;;4977075;28;20028;-51
2021/03/19 13:30:57;;;;;;;47.75;20.85;;;;;;;;;;4976563;28;20124;-51
2021/03/19 13:33:24;;;;;;;62.47;25.35;;;;;;;;;;4975355;28;20027;-50
2021/03/19 13:35:55;;;;;;;33.15;19.15;;;;;;;;;;4976681;28;20051;-49
2021/03/19 13:38:26;;;;;;;37.53;22.13;;;;;;;;;;4976273;28;20046;-48
2021/03/19 13:40:53;;;;;;;45.05;27.00;;;;;;;;;;4976434;28;20085;-52
2021/03/19 13:43:20;;;;;;;26.90;16.38;;;;;;;;;;4976465;28;20054;-49
2021/03/19 13:45:47;;;;;;;37.60;21.15;;;;;;;;;;4976449;28;20558;-53
2021/03/19 13:48:13;;;;;;;42.67;24.05;;;;;;;;;;4976523;28;20097;-53
2021/03/19 13:50:41;;;;;;;75.57;37.70;;;;;;;;;;4988485;28;20061;-52
2021/03/19 13:53:07;;;;;;;63.92;35.20;;;;;;;;;;4995744;28;20027;-50
2021/03/19 13:55:33;;;;;;;46.75;25.67;;;;;;;;;;4995704;28;20026;-54
2021/03/19 13:58:00;;;;;;;50.78;27.13;;;;;;;;;;4995542;28;20493;-56
2021/03/19 14:00:32;;;;;;;36.53;20.23;;;;;;;;;;4995617;28;20445;-54
2021/03/19 14:02:58;;;;;;;41.17;23.77;;;;;;;;;;4995496;28;20026;-54
2021/03/19 14:05:26;;;;;;;62.80;30.85;;;;;;;;;;4984931;28;20088;-52
2021/03/19 14:07:52;;;;;;;30.08;17.08;;;;;;;;;;4970851;28;20054;-53
2021/03/19 14:10:20;;;;;;;61.33;30.58;;;;;;;;;;4970783;28;20026;-51
2021/03/19 14:12:46;;;;;;;65.25;35.20;;;;;;;;;;4970822;28;20370;-52
2021/03/19 14:15:13;;;;;;;36.75;22.02;;;;;;;;;;4971421;28;20038;-51
2021/03/19 14:17:39;;;;;;;34.80;20.67;;;;;;;;;;4971124;28;20470;-51
2021/03/19 14:20:11;;;;;;;28.50;16.83;;;;;;;;;;4970563;28;20695;-51
2021/03/19 14:22:37;;;;;;;26.95;16.85;;;;;;;;;;4970646;28;20104;-53
2021/03/19 14:25:06;;;;;;;23.90;13.70;;;;;;;;;;4970599;28;20656;-52
2021/03/19 14:27:33;;;;;;;35.78;19.60;;;;;;;;;;4970310;28;20480;-51
2021/03/19 14:29:59;;;;;;;64.32;34.35;;;;;;;;;;4970518;28;20076;-56
2021/03/19 14:32:26;;;;;;;123.68;58.50;;;;;;;;;;4970610;28;20442;-55
2021/03/19 14:34:52;;;;;;;43.60;25.73;;;;;;;;;;4970204;28;20784;-54
2021/03/19 14:37:18;;;;;;;59.55;31.10;;;;;;;;;;4970303;28;20092;-54